sensor_id;sensor_type;location;lat;lon;timestamp;P1;durP1;ratioP1;P2;durP2;ratioP2
55007;SDS011;40902;45.116;21.296;2023-09-30T00:01:45;5.70;;;4.97;;
55007;SDS011;40902;45.116;21.296;2023-09-30T00:04:11;7.32;;;5.07;;
55007;SDS011;40902;45.116;21.296;2023-09-30T00:06:37;6.90;;;5.45;;
55007;SDS011;40902;45.116;21.296;2023-09-30T00:09:03;6.05;;;4.57;;
55007;SDS011;40902;45.116;21.296;2023-09-30T00:11:30;6.10;;;4.85;;
55007;SDS011;40902;45.116;21.296;2023-09-30T00:13:56;6.85;;;4.50;;
55007;SDS011;40902;45.116;21.296;2023-09-30T00:16:23;6.93;;;5.53;;
55007;SDS011;40902;45.116;21.296;2023-09-30T00:18:49;6.75;;;4.57;;
55007;SDS011;40902;45.116;21.296;2023-09-30T00:21:15;7.40;;;5.30;;
55007;SDS011;40902;45.116;21.296;2023-09-30T00:23:42;6.95;;;4.63;;
55007;SDS011;40902;45.116;21.296;2023-09-30T00:26:08;6.15;;;4.78;;
55007;SDS011;40902;45.116;21.296;2023-09-30T00:28:34;6.43;;;4.90;;
55007;SDS011;40902;45.116;21.296;2023-09-30T00:31:00;6.43;;;4.82;;
55007;SDS011;40902;45.116;21.296;2023-09-30T00:33:26;8.30;;;5.28;;
55007;SDS011;40902;45.116;21.296;2023-09-30T00:35:52;6.95;;;4.85;;
55007;SDS011;40902;45.116;21.296;2023-09-30T00:38:18;6.45;;;4.93;;
55007;SDS011;40902;45.116;21.296;2023-09-30T00:40:48;7.20;;;4.88;;
55007;SDS011;40902;45.116;21.296;2023-09-30T00:43:18;6.50;;;4.75;;
55007;SDS011;40902;45.116;21.296;2023-09-30T00:45:44;7.07;;;4.72;;
55007;SDS011;40902;45.116;21.296;2023-09-30T00:48:10;6.43;;;4.72;;
55007;SDS011;40902;45.116;21.296;2023-09-30T00:50:36;7.00;;;4.90;;
55007;SDS011;40902;45.116;21.296;2023-09-30T00:53:03;7.05;;;5.22;;
55007;SDS011;40902;45.116;21.296;2023-09-30T00:55:29;7.47;;;4.55;;
55007;SDS011;40902;45.116;21.296;2023-09-30T00:57:56;7.43;;;4.80;;
55007;SDS011;40902;45.116;21.296;2023-09-30T01:00:22;6.43;;;4.78;;
55007;SDS011;40902;45.116;21.296;2023-09-30T01:02:50;5.10;;;4.28;;
55007;SDS011;40902;45.116;21.296;2023-09-30T01:05:18;5.88;;;4.70;;
55007;SDS011;40902;45.116;21.296;2023-09-30T01:07:44;6.43;;;4.38;;
55007;SDS011;40902;45.116;21.296;2023-09-30T01:10:10;7.05;;;5.00;;
55007;SDS011;40902;45.116;21.296;2023-09-30T01:12:35;6.00;;;4.75;;
55007;SDS011;40902;45.116;21.296;2023-09-30T01:15:02;6.05;;;4.47;;
55007;SDS011;40902;45.116;21.296;2023-09-30T01:17:30;7.80;;;5.03;;
55007;SDS011;40902;45.116;21.296;2023-09-30T01:19:57;6.00;;;4.68;;
55007;SDS011;40902;45.116;21.296;2023-09-30T01:22:26;7.28;;;4.90;;
55007;SDS011;40902;45.116;21.296;2023-09-30T01:24:54;6.85;;;4.53;;
55007;SDS011;40902;45.116;21.296;2023-09-30T01:27:20;7.20;;;4.95;;
55007;SDS011;40902;45.116;21.296;2023-09-30T01:29:46;5.88;;;4.45;;
55007;SDS011;40902;45.116;21.296;2023-09-30T01:32:12;6.07;;;4.55;;
55007;SDS011;40902;45.116;21.296;2023-09-30T01:34:39;7.53;;;5.05;;
55007;SDS011;40902;45.116;21.296;2023-09-30T01:37:04;5.53;;;4.53;;
55007;SDS011;40902;45.116;21.296;2023-09-30T01:39:31;6.88;;;4.60;;
55007;SDS011;40902;45.116;21.296;2023-09-30T01:41:57;6.35;;;4.60;;
55007;SDS011;40902;45.116;21.296;2023-09-30T01:44:23;5.97;;;4.80;;
55007;SDS011;40902;45.116;21.296;2023-09-30T01:46:48;7.55;;;5.05;;
55007;SDS011;40902;45.116;21.296;2023-09-30T01:49:14;6.35;;;4.30;;
55007;SDS011;40902;45.116;21.296;2023-09-30T01:51:40;6.70;;;4.80;;
55007;SDS011;40902;45.116;21.296;2023-09-30T01:54:05;5.70;;;4.60;;
55007;SDS011;40902;45.116;21.296;2023-09-30T01:56:32;6.80;;;4.60;;
55007;SDS011;40902;45.116;21.296;2023-09-30T01:58:58;5.57;;;4.38;;
55007;SDS011;40902;45.116;21.296;2023-09-30T02:01:25;5.72;;;4.65;;
55007;SDS011;40902;45.116;21.296;2023-09-30T02:03:50;5.95;;;4.47;;
55007;SDS011;40902;45.116;21.296;2023-09-30T02:06:16;6.30;;;4.47;;
55007;SDS011;40902;45.116;21.296;2023-09-30T02:08:42;6.72;;;4.88;;
55007;SDS011;40902;45.116;21.296;2023-09-30T02:11:09;6.45;;;4.63;;
55007;SDS011;40902;45.116;21.296;2023-09-30T02:13:35;5.47;;;4.40;;
55007;SDS011;40902;45.116;21.296;2023-09-30T02:16:01;6.03;;;4.18;;
55007;SDS011;40902;45.116;21.296;2023-09-30T02:18:27;6.95;;;4.28;;
55007;SDS011;40902;45.116;21.296;2023-09-30T02:20:53;6.40;;;4.78;;
55007;SDS011;40902;45.116;21.296;2023-09-30T02:23:18;7.25;;;4.57;;
55007;SDS011;40902;45.116;21.296;2023-09-30T02:25:46;5.60;;;4.32;;
55007;SDS011;40902;45.116;21.296;2023-09-30T02:28:12;6.30;;;4.60;;
55007;SDS011;40902;45.116;21.296;2023-09-30T02:30:38;5.45;;;4.28;;
55007;SDS011;40902;45.116;21.296;2023-09-30T02:33:04;6.93;;;4.63;;
55007;SDS011;40902;45.116;21.296;2023-09-30T02:35:31;5.40;;;4.32;;
55007;SDS011;40902;45.116;21.296;2023-09-30T02:37:57;5.38;;;4.28;;
55007;SDS011;40902;45.116;21.296;2023-09-30T02:40:24;6.38;;;4.47;;
55007;SDS011;40902;45.116;21.296;2023-09-30T02:42:50;5.53;;;4.28;;
55007;SDS011;40902;45.116;21.296;2023-09-30T02:45:19;5.32;;;4.55;;
55007;SDS011;40902;45.116;21.296;2023-09-30T02:47:45;6.00;;;4.47;;
55007;SDS011;40902;45.116;21.296;2023-09-30T02:50:12;7.15;;;4.57;;
55007;SDS011;40902;45.116;21.296;2023-09-30T02:52:38;5.47;;;4.30;;
55007;SDS011;40902;45.116;21.296;2023-09-30T02:55:07;6.65;;;4.47;;
55007;SDS011;40902;45.116;21.296;2023-09-30T02:57:34;8.45;;;4.43;;
55007;SDS011;40902;45.116;21.296;2023-09-30T03:00:01;5.13;;;4.28;;
55007;SDS011;40902;45.116;21.296;2023-09-30T03:02:37;5.78;;;4.38;;
55007;SDS011;40902;45.116;21.296;2023-09-30T03:05:03;6.40;;;4.55;;
55007;SDS011;40902;45.116;21.296;2023-09-30T03:07:29;5.70;;;4.00;;
55007;SDS011;40902;45.116;21.296;2023-09-30T03:09:55;5.53;;;4.30;;
55007;SDS011;40902;45.116;21.296;2023-09-30T03:12:20;5.20;;;4.40;;
55007;SDS011;40902;45.116;21.296;2023-09-30T03:14:46;5.05;;;4.15;;
55007;SDS011;40902;45.116;21.296;2023-09-30T03:17:13;6.20;;;4.40;;
55007;SDS011;40902;45.116;21.296;2023-09-30T03:19:38;4.82;;;4.05;;
55007;SDS011;40902;45.116;21.296;2023-09-30T03:22:04;5.88;;;4.53;;
55007;SDS011;40902;45.116;21.296;2023-09-30T03:24:30;5.22;;;4.10;;
55007;SDS011;40902;45.116;21.296;2023-09-30T03:26:56;6.15;;;4.10;;
55007;SDS011;40902;45.116;21.296;2023-09-30T03:29:23;5.32;;;4.32;;
55007;SDS011;40902;45.116;21.296;2023-09-30T03:31:48;5.93;;;3.92;;
55007;SDS011;40902;45.116;21.296;2023-09-30T03:34:14;5.07;;;3.85;;
55007;SDS011;40902;45.116;21.296;2023-09-30T03:36:41;4.68;;;3.42;;
55007;SDS011;40902;45.116;21.296;2023-09-30T03:39:07;6.25;;;4.18;;
55007;SDS011;40902;45.116;21.296;2023-09-30T03:41:33;5.68;;;4.20;;
55007;SDS011;40902;45.116;21.296;2023-09-30T03:44:02;6.20;;;4.13;;
55007;SDS011;40902;45.116;21.296;2023-09-30T03:46:28;6.15;;;4.18;;
55007;SDS011;40902;45.116;21.296;2023-09-30T03:48:55;5.35;;;3.90;;
55007;SDS011;40902;45.116;21.296;2023-09-30T03:51:20;5.05;;;3.80;;
55007;SDS011;40902;45.116;21.296;2023-09-30T03:53:48;5.32;;;4.18;;
55007;SDS011;40902;45.116;21.296;2023-09-30T03:56:14;4.85;;;4.03;;
55007;SDS011;40902;45.116;21.296;2023-09-30T03:58:40;5.13;;;3.78;;
55007;SDS011;40902;45.116;21.296;2023-09-30T04:01:10;6.88;;;4.15;;
55007;SDS011;40902;45.116;21.296;2023-09-30T04:03:37;6.25;;;4.43;;
55007;SDS011;40902;45.116;21.296;2023-09-30T04:06:06;5.85;;;4.35;;
55007;SDS011;40902;45.116;21.296;2023-09-30T04:08:32;6.07;;;4.32;;
55007;SDS011;40902;45.116;21.296;2023-09-30T04:10:59;6.45;;;4.28;;
55007;SDS011;40902;45.116;21.296;2023-09-30T04:13:25;5.43;;;4.18;;
55007;SDS011;40902;45.116;21.296;2023-09-30T04:15:52;5.40;;;4.38;;
55007;SDS011;40902;45.116;21.296;2023-09-30T04:18:18;5.55;;;3.75;;
55007;SDS011;40902;45.116;21.296;2023-09-30T04:20:45;8.30;;;4.35;;
55007;SDS011;40902;45.116;21.296;2023-09-30T04:23:11;5.78;;;3.90;;
55007;SDS011;40902;45.116;21.296;2023-09-30T04:25:38;5.75;;;4.03;;
55007;SDS011;40902;45.116;21.296;2023-09-30T04:28:05;6.15;;;4.00;;
55007;SDS011;40902;45.116;21.296;2023-09-30T04:30:32;4.68;;;3.95;;
55007;SDS011;40902;45.116;21.296;2023-09-30T04:33:01;5.22;;;4.00;;
55007;SDS011;40902;45.116;21.296;2023-09-30T04:35:29;4.88;;;3.38;;
55007;SDS011;40902;45.116;21.296;2023-09-30T04:37:56;5.55;;;3.95;;
55007;SDS011;40902;45.116;21.296;2023-09-30T04:40:26;4.97;;;4.03;;
55007;SDS011;40902;45.116;21.296;2023-09-30T04:42:52;5.00;;;3.70;;
55007;SDS011;40902;45.116;21.296;2023-09-30T04:45:23;5.50;;;4.20;;
55007;SDS011;40902;45.116;21.296;2023-09-30T04:47:51;9.48;;;4.50;;
55007;SDS011;40902;45.116;21.296;2023-09-30T04:50:17;4.90;;;3.70;;
55007;SDS011;40902;45.116;21.296;2023-09-30T04:52:46;6.30;;;4.10;;
55007;SDS011;40902;45.116;21.296;2023-09-30T04:55:13;5.22;;;4.20;;
55007;SDS011;40902;45.116;21.296;2023-09-30T04:57:41;5.00;;;3.88;;
55007;SDS011;40902;45.116;21.296;2023-09-30T05:00:14;5.15;;;4.05;;
55007;SDS011;40902;45.116;21.296;2023-09-30T05:02:44;5.95;;;3.45;;
55007;SDS011;40902;45.116;21.296;2023-09-30T05:05:10;6.00;;;3.75;;
55007;SDS011;40902;45.116;21.296;2023-09-30T05:07:36;5.22;;;3.85;;
55007;SDS011;40902;45.116;21.296;2023-09-30T05:10:03;5.90;;;4.30;;
55007;SDS011;40902;45.116;21.296;2023-09-30T05:12:35;5.53;;;4.10;;
55007;SDS011;40902;45.116;21.296;2023-09-30T05:15:01;6.20;;;4.47;;
55007;SDS011;40902;45.116;21.296;2023-09-30T05:17:28;5.18;;;4.05;;
55007;SDS011;40902;45.116;21.296;2023-09-30T05:19:55;4.72;;;3.63;;
55007;SDS011;40902;45.116;21.296;2023-09-30T05:22:22;5.78;;;4.30;;
55007;SDS011;40902;45.116;21.296;2023-09-30T05:24:52;5.60;;;4.07;;
55007;SDS011;40902;45.116;21.296;2023-09-30T05:27:19;5.75;;;4.03;;
55007;SDS011;40902;45.116;21.296;2023-09-30T05:29:45;5.05;;;3.70;;
55007;SDS011;40902;45.116;21.296;2023-09-30T05:32:10;5.10;;;4.03;;
55007;SDS011;40902;45.116;21.296;2023-09-30T05:34:37;5.68;;;4.22;;
55007;SDS011;40902;45.116;21.296;2023-09-30T05:37:04;6.47;;;4.10;;
55007;SDS011;40902;45.116;21.296;2023-09-30T05:39:30;5.43;;;4.15;;
55007;SDS011;40902;45.116;21.296;2023-09-30T05:41:56;5.68;;;4.45;;
55007;SDS011;40902;45.116;21.296;2023-09-30T05:44:23;5.80;;;4.60;;
55007;SDS011;40902;45.116;21.296;2023-09-30T05:46:48;6.28;;;4.10;;
55007;SDS011;40902;45.116;21.296;2023-09-30T05:49:14;6.18;;;4.10;;
55007;SDS011;40902;45.116;21.296;2023-09-30T05:51:41;5.10;;;4.20;;
55007;SDS011;40902;45.116;21.296;2023-09-30T05:54:07;6.10;;;3.97;;
55007;SDS011;40902;45.116;21.296;2023-09-30T05:56:37;5.30;;;4.25;;
55007;SDS011;40902;45.116;21.296;2023-09-30T05:59:06;6.28;;;4.20;;
55007;SDS011;40902;45.116;21.296;2023-09-30T06:01:32;5.30;;;3.75;;
55007;SDS011;40902;45.116;21.296;2023-09-30T06:03:59;4.70;;;3.90;;
55007;SDS011;40902;45.116;21.296;2023-09-30T06:06:25;6.97;;;4.03;;
55007;SDS011;40902;45.116;21.296;2023-09-30T06:08:53;5.22;;;3.80;;
55007;SDS011;40902;45.116;21.296;2023-09-30T06:11:19;4.88;;;4.10;;
55007;SDS011;40902;45.116;21.296;2023-09-30T06:13:52;5.68;;;4.10;;
55007;SDS011;40902;45.116;21.296;2023-09-30T06:16:18;4.93;;;4.38;;
55007;SDS011;40902;45.116;21.296;2023-09-30T06:18:45;5.75;;;3.92;;
55007;SDS011;40902;45.116;21.296;2023-09-30T06:21:11;5.00;;;3.78;;
55007;SDS011;40902;45.116;21.296;2023-09-30T06:23:42;5.38;;;4.00;;
55007;SDS011;40902;45.116;21.296;2023-09-30T06:26:08;6.00;;;3.90;;
55007;SDS011;40902;45.116;21.296;2023-09-30T06:28:34;6.18;;;4.20;;
55007;SDS011;40902;45.116;21.296;2023-09-30T06:31:06;6.50;;;4.22;;
55007;SDS011;40902;45.116;21.296;2023-09-30T06:33:33;5.90;;;3.97;;
55007;SDS011;40902;45.116;21.296;2023-09-30T06:36:09;4.80;;;3.83;;
55007;SDS011;40902;45.116;21.296;2023-09-30T06:38:36;7.88;;;3.90;;
55007;SDS011;40902;45.116;21.296;2023-09-30T06:41:02;5.22;;;3.97;;
55007;SDS011;40902;45.116;21.296;2023-09-30T06:43:28;6.88;;;4.53;;
55007;SDS011;40902;45.116;21.296;2023-09-30T06:45:54;5.35;;;4.03;;
55007;SDS011;40902;45.116;21.296;2023-09-30T06:48:20;5.45;;;4.13;;
55007;SDS011;40902;45.116;21.296;2023-09-30T06:50:46;7.35;;;4.20;;
55007;SDS011;40902;45.116;21.296;2023-09-30T06:53:22;5.22;;;4.00;;
55007;SDS011;40902;45.116;21.296;2023-09-30T06:55:48;6.45;;;4.25;;
55007;SDS011;40902;45.116;21.296;2023-09-30T06:58:16;5.25;;;4.10;;
55007;SDS011;40902;45.116;21.296;2023-09-30T07:00:46;5.53;;;4.22;;
55007;SDS011;40902;45.116;21.296;2023-09-30T07:03:14;6.28;;;4.20;;
55007;SDS011;40902;45.116;21.296;2023-09-30T07:05:40;6.32;;;4.10;;
55007;SDS011;40902;45.116;21.296;2023-09-30T07:08:06;5.10;;;4.00;;
55007;SDS011;40902;45.116;21.296;2023-09-30T07:10:33;7.95;;;4.63;;
55007;SDS011;40902;45.116;21.296;2023-09-30T07:13:01;6.03;;;3.85;;
55007;SDS011;40902;45.116;21.296;2023-09-30T07:15:28;6.18;;;4.82;;
55007;SDS011;40902;45.116;21.296;2023-09-30T07:17:54;5.30;;;4.25;;
55007;SDS011;40902;45.116;21.296;2023-09-30T07:20:19;5.32;;;4.05;;
55007;SDS011;40902;45.116;21.296;2023-09-30T07:22:47;5.00;;;3.97;;
55007;SDS011;40902;45.116;21.296;2023-09-30T07:25:13;5.47;;;4.50;;
55007;SDS011;40902;45.116;21.296;2023-09-30T07:27:42;6.15;;;4.30;;
55007;SDS011;40902;45.116;21.296;2023-09-30T07:30:08;6.15;;;4.47;;
55007;SDS011;40902;45.116;21.296;2023-09-30T07:32:37;6.40;;;4.47;;
55007;SDS011;40902;45.116;21.296;2023-09-30T07:35:03;6.47;;;4.15;;
55007;SDS011;40902;45.116;21.296;2023-09-30T07:37:29;6.18;;;4.40;;
55007;SDS011;40902;45.116;21.296;2023-09-30T07:39:55;6.20;;;4.75;;
55007;SDS011;40902;45.116;21.296;2023-09-30T07:42:20;6.32;;;4.47;;
55007;SDS011;40902;45.116;21.296;2023-09-30T07:44:47;5.28;;;4.22;;
55007;SDS011;40902;45.116;21.296;2023-09-30T07:47:14;6.07;;;4.32;;
55007;SDS011;40902;45.116;21.296;2023-09-30T07:49:40;6.55;;;4.35;;
55007;SDS011;40902;45.116;21.296;2023-09-30T07:52:05;4.68;;;4.10;;
55007;SDS011;40902;45.116;21.296;2023-09-30T07:54:31;6.80;;;4.70;;
55007;SDS011;40902;45.116;21.296;2023-09-30T07:56:57;5.45;;;4.28;;
55007;SDS011;40902;45.116;21.296;2023-09-30T07:59:24;4.88;;;3.70;;
55007;SDS011;40902;45.116;21.296;2023-09-30T08:01:50;5.20;;;4.28;;
55007;SDS011;40902;45.116;21.296;2023-09-30T08:04:17;6.80;;;4.45;;
55007;SDS011;40902;45.116;21.296;2023-09-30T08:06:44;7.47;;;4.18;;
55007;SDS011;40902;45.116;21.296;2023-09-30T08:09:11;5.15;;;4.40;;
55007;SDS011;40902;45.116;21.296;2023-09-30T08:11:38;6.07;;;4.63;;
55007;SDS011;40902;45.116;21.296;2023-09-30T08:14:04;6.30;;;4.45;;
55007;SDS011;40902;45.116;21.296;2023-09-30T08:16:34;6.00;;;4.00;;
55007;SDS011;40902;45.116;21.296;2023-09-30T08:19:01;7.38;;;4.85;;
55007;SDS011;40902;45.116;21.296;2023-09-30T08:21:28;6.95;;;4.20;;
55007;SDS011;40902;45.116;21.296;2023-09-30T08:23:54;4.78;;;4.10;;
55007;SDS011;40902;45.116;21.296;2023-09-30T08:26:20;5.45;;;4.20;;
55007;SDS011;40902;45.116;21.296;2023-09-30T08:28:45;7.70;;;4.30;;
55007;SDS011;40902;45.116;21.296;2023-09-30T08:31:11;5.15;;;4.18;;
55007;SDS011;40902;45.116;21.296;2023-09-30T08:33:37;4.88;;;3.92;;
55007;SDS011;40902;45.116;21.296;2023-09-30T08:36:06;5.47;;;4.13;;
55007;SDS011;40902;45.116;21.296;2023-09-30T08:38:36;6.25;;;4.18;;
55007;SDS011;40902;45.116;21.296;2023-09-30T08:41:02;6.30;;;4.65;;
55007;SDS011;40902;45.116;21.296;2023-09-30T08:43:28;6.82;;;4.60;;
55007;SDS011;40902;45.116;21.296;2023-09-30T08:45:57;6.13;;;4.60;;
55007;SDS011;40902;45.116;21.296;2023-09-30T08:48:28;5.68;;;4.40;;
55007;SDS011;40902;45.116;21.296;2023-09-30T08:50:55;6.03;;;4.68;;
55007;SDS011;40902;45.116;21.296;2023-09-30T08:53:23;5.38;;;4.43;;
55007;SDS011;40902;45.116;21.296;2023-09-30T08:55:52;6.53;;;4.20;;
55007;SDS011;40902;45.116;21.296;2023-09-30T08:58:19;6.63;;;4.43;;
55007;SDS011;40902;45.116;21.296;2023-09-30T09:00:49;6.93;;;4.15;;
55007;SDS011;40902;45.116;21.296;2023-09-30T09:03:15;5.60;;;4.07;;
55007;SDS011;40902;45.116;21.296;2023-09-30T09:05:43;5.38;;;3.92;;
55007;SDS011;40902;45.116;21.296;2023-09-30T09:08:08;6.43;;;4.50;;
55007;SDS011;40902;45.116;21.296;2023-09-30T09:10:34;5.60;;;4.28;;
55007;SDS011;40902;45.116;21.296;2023-09-30T09:13:00;6.38;;;4.18;;
55007;SDS011;40902;45.116;21.296;2023-09-30T09:15:26;6.75;;;4.57;;
55007;SDS011;40902;45.116;21.296;2023-09-30T09:17:53;5.90;;;4.25;;
55007;SDS011;40902;45.116;21.296;2023-09-30T09:20:20;5.70;;;4.10;;
55007;SDS011;40902;45.116;21.296;2023-09-30T09:22:48;6.35;;;4.25;;
55007;SDS011;40902;45.116;21.296;2023-09-30T09:25:23;5.88;;;4.40;;
55007;SDS011;40902;45.116;21.296;2023-09-30T09:27:49;5.38;;;3.78;;
55007;SDS011;40902;45.116;21.296;2023-09-30T09:30:17;6.05;;;4.57;;
55007;SDS011;40902;45.116;21.296;2023-09-30T09:33:02;6.22;;;4.32;;
55007;SDS011;40902;45.116;21.296;2023-09-30T09:35:30;6.80;;;4.35;;
55007;SDS011;40902;45.116;21.296;2023-09-30T09:40:27;5.70;;;4.32;;
55007;SDS011;40902;45.116;21.296;2023-09-30T09:42:55;6.32;;;4.40;;
55007;SDS011;40902;45.116;21.296;2023-09-30T09:45:21;4.93;;;3.95;;
55007;SDS011;40902;45.116;21.296;2023-09-30T09:47:48;6.60;;;4.63;;
55007;SDS011;40902;45.116;21.296;2023-09-30T09:50:14;5.78;;;4.50;;
55007;SDS011;40902;45.116;21.296;2023-09-30T09:52:41;6.32;;;4.80;;
55007;SDS011;40902;45.116;21.296;2023-09-30T09:55:08;4.65;;;4.13;;
55007;SDS011;40902;45.116;21.296;2023-09-30T09:57:36;6.63;;;4.40;;
55007;SDS011;40902;45.116;21.296;2023-09-30T10:00:03;4.75;;;4.15;;
55007;SDS011;40902;45.116;21.296;2023-09-30T10:02:34;6.63;;;4.38;;
55007;SDS011;40902;45.116;21.296;2023-09-30T10:05:01;6.22;;;4.25;;
55007;SDS011;40902;45.116;21.296;2023-09-30T10:07:29;6.28;;;4.32;;
55007;SDS011;40902;45.116;21.296;2023-09-30T10:10:00;7.32;;;4.78;;
55007;SDS011;40902;45.116;21.296;2023-09-30T10:12:28;5.00;;;4.20;;
55007;SDS011;40902;45.116;21.296;2023-09-30T10:15:00;6.43;;;4.40;;
55007;SDS011;40902;45.116;21.296;2023-09-30T10:18:05;5.88;;;4.35;;
55007;SDS011;40902;45.116;21.296;2023-09-30T10:20:33;5.13;;;4.20;;
55007;SDS011;40902;45.116;21.296;2023-09-30T10:26:31;5.45;;;4.35;;
55007;SDS011;40902;45.116;21.296;2023-09-30T10:28:49;5.68;;;4.43;;
55007;SDS011;40902;45.116;21.296;2023-09-30T10:31:16;7.05;;;4.47;;
55007;SDS011;40902;45.116;21.296;2023-09-30T10:36:27;4.47;;;3.80;;
55007;SDS011;40902;45.116;21.296;2023-09-30T10:39:00;5.38;;;4.25;;
55007;SDS011;40902;45.116;21.296;2023-09-30T10:51:56;6.45;;;4.40;;
55007;SDS011;40902;45.116;21.296;2023-09-30T10:54:28;6.28;;;4.68;;
55007;SDS011;40902;45.116;21.296;2023-09-30T10:56:58;6.13;;;4.05;;
55007;SDS011;40902;45.116;21.296;2023-09-30T10:59:26;7.28;;;4.70;;
55007;SDS011;40902;45.116;21.296;2023-09-30T11:01:52;5.45;;;4.15;;
55007;SDS011;40902;45.116;21.296;2023-09-30T11:04:18;5.95;;;4.53;;
55007;SDS011;40902;45.116;21.296;2023-09-30T11:06:45;5.63;;;4.25;;
55007;SDS011;40902;45.116;21.296;2023-09-30T11:09:18;5.65;;;4.47;;
55007;SDS011;40902;45.116;21.296;2023-09-30T11:14:24;6.47;;;4.47;;
55007;SDS011;40902;45.116;21.296;2023-09-30T11:16:53;4.78;;;3.60;;
55007;SDS011;40902;45.116;21.296;2023-09-30T11:19:20;5.47;;;4.50;;
55007;SDS011;40902;45.116;21.296;2023-09-30T11:21:47;6.15;;;4.07;;
55007;SDS011;40902;45.116;21.296;2023-09-30T11:24:14;5.25;;;4.10;;
55007;SDS011;40902;45.116;21.296;2023-09-30T11:26:41;4.50;;;3.83;;
55007;SDS011;40902;45.116;21.296;2023-09-30T11:29:07;5.10;;;4.15;;
55007;SDS011;40902;45.116;21.296;2023-09-30T11:31:43;4.97;;;4.00;;
55007;SDS011;40902;45.116;21.296;2023-09-30T11:34:10;6.72;;;4.10;;
55007;SDS011;40902;45.116;21.296;2023-09-30T11:36:52;4.97;;;3.95;;
55007;SDS011;40902;45.116;21.296;2023-09-30T11:39:28;4.70;;;3.95;;
55007;SDS011;40902;45.116;21.296;2023-09-30T11:41:55;5.05;;;3.95;;
55007;SDS011;40902;45.116;21.296;2023-09-30T11:44:22;5.47;;;4.25;;
55007;SDS011;40902;45.116;21.296;2023-09-30T11:49:36;4.95;;;3.95;;
55007;SDS011;40902;45.116;21.296;2023-09-30T11:52:04;5.95;;;4.22;;
55007;SDS011;40902;45.116;21.296;2023-09-30T11:57:05;5.72;;;4.10;;
55007;SDS011;40902;45.116;21.296;2023-09-30T11:59:34;4.90;;;4.07;;
55007;SDS011;40902;45.116;21.296;2023-09-30T12:02:07;5.10;;;3.73;;
55007;SDS011;40902;45.116;21.296;2023-09-30T12:04:40;5.65;;;3.63;;
55007;SDS011;40902;45.116;21.296;2023-09-30T12:07:10;5.47;;;4.13;;
55007;SDS011;40902;45.116;21.296;2023-09-30T12:09:36;4.47;;;3.75;;
55007;SDS011;40902;45.116;21.296;2023-09-30T12:12:04;4.03;;;3.63;;
55007;SDS011;40902;45.116;21.296;2023-09-30T12:14:35;4.50;;;3.70;;
55007;SDS011;40902;45.116;21.296;2023-09-30T12:17:00;4.85;;;3.75;;
55007;SDS011;40902;45.116;21.296;2023-09-30T12:19:26;4.47;;;3.78;;
55007;SDS011;40902;45.116;21.296;2023-09-30T12:21:52;5.82;;;4.13;;
55007;SDS011;40902;45.116;21.296;2023-09-30T12:24:18;5.43;;;3.95;;
55007;SDS011;40902;45.116;21.296;2023-09-30T12:26:49;5.13;;;3.92;;
55007;SDS011;40902;45.116;21.296;2023-09-30T12:29:19;4.50;;;3.60;;
55007;SDS011;40902;45.116;21.296;2023-09-30T12:31:51;5.13;;;3.78;;
55007;SDS011;40902;45.116;21.296;2023-09-30T12:34:17;5.20;;;3.78;;
55007;SDS011;40902;45.116;21.296;2023-09-30T12:36:43;7.00;;;3.78;;
55007;SDS011;40902;45.116;21.296;2023-09-30T12:39:09;5.20;;;3.85;;
55007;SDS011;40902;45.116;21.296;2023-09-30T12:41:39;4.93;;;3.60;;
55007;SDS011;40902;45.116;21.296;2023-09-30T12:44:06;5.85;;;4.13;;
55007;SDS011;40902;45.116;21.296;2023-09-30T12:46:33;4.63;;;3.67;;
55007;SDS011;40902;45.116;21.296;2023-09-30T12:49:02;4.50;;;3.67;;
55007;SDS011;40902;45.116;21.296;2023-09-30T12:51:28;5.88;;;3.65;;
55007;SDS011;40902;45.116;21.296;2023-09-30T12:53:54;5.70;;;4.35;;
55007;SDS011;40902;45.116;21.296;2023-09-30T12:56:20;4.93;;;3.95;;
55007;SDS011;40902;45.116;21.296;2023-09-30T12:58:46;5.68;;;3.47;;
55007;SDS011;40902;45.116;21.296;2023-09-30T13:01:12;4.05;;;3.35;;
55007;SDS011;40902;45.116;21.296;2023-09-30T13:03:38;4.60;;;3.60;;
55007;SDS011;40902;45.116;21.296;2023-09-30T13:06:03;4.47;;;3.67;;
55007;SDS011;40902;45.116;21.296;2023-09-30T13:08:29;6.45;;;3.97;;
55007;SDS011;40902;45.116;21.296;2023-09-30T13:11:02;4.30;;;3.70;;
55007;SDS011;40902;45.116;21.296;2023-09-30T13:13:31;4.35;;;3.50;;
55007;SDS011;40902;45.116;21.296;2023-09-30T13:16:04;5.47;;;3.63;;
55007;SDS011;40902;45.116;21.296;2023-09-30T13:18:30;5.47;;;4.20;;
55007;SDS011;40902;45.116;21.296;2023-09-30T13:20:57;4.80;;;3.92;;
55007;SDS011;40902;45.116;21.296;2023-09-30T13:23:23;4.60;;;3.83;;
55007;SDS011;40902;45.116;21.296;2023-09-30T13:25:49;5.13;;;3.90;;
55007;SDS011;40902;45.116;21.296;2023-09-30T13:28:15;6.45;;;4.10;;
55007;SDS011;40902;45.116;21.296;2023-09-30T13:30:41;4.50;;;3.65;;
55007;SDS011;40902;45.116;21.296;2023-09-30T13:33:07;4.35;;;3.72;;
55007;SDS011;40902;45.116;21.296;2023-09-30T13:35:33;4.90;;;3.88;;
55007;SDS011;40902;45.116;21.296;2023-09-30T13:37:58;5.45;;;4.05;;
55007;SDS011;40902;45.116;21.296;2023-09-30T13:40:25;4.28;;;3.60;;
55007;SDS011;40902;45.116;21.296;2023-09-30T13:42:50;6.82;;;3.90;;
55007;SDS011;40902;45.116;21.296;2023-09-30T13:45:17;4.85;;;3.75;;
55007;SDS011;40902;45.116;21.296;2023-09-30T13:47:43;4.65;;;4.15;;
55007;SDS011;40902;45.116;21.296;2023-09-30T13:50:09;4.47;;;3.67;;
55007;SDS011;40902;45.116;21.296;2023-09-30T13:52:35;4.85;;;3.83;;
55007;SDS011;40902;45.116;21.296;2023-09-30T13:55:01;4.15;;;3.55;;
55007;SDS011;40902;45.116;21.296;2023-09-30T13:57:29;5.03;;;3.70;;
55007;SDS011;40902;45.116;21.296;2023-09-30T13:59:55;5.00;;;3.58;;
55007;SDS011;40902;45.116;21.296;2023-09-30T14:02:21;4.65;;;3.72;;
55007;SDS011;40902;45.116;21.296;2023-09-30T14:04:47;4.88;;;3.97;;
55007;SDS011;40902;45.116;21.296;2023-09-30T14:07:13;5.13;;;4.07;;
55007;SDS011;40902;45.116;21.296;2023-09-30T14:09:39;4.60;;;3.60;;
55007;SDS011;40902;45.116;21.296;2023-09-30T14:12:05;4.75;;;3.90;;
55007;SDS011;40902;45.116;21.296;2023-09-30T14:14:31;4.85;;;3.70;;
55007;SDS011;40902;45.116;21.296;2023-09-30T14:16:59;4.75;;;3.97;;
55007;SDS011;40902;45.116;21.296;2023-09-30T14:19:25;4.65;;;3.55;;
55007;SDS011;40902;45.116;21.296;2023-09-30T14:21:51;6.60;;;3.85;;
55007;SDS011;40902;45.116;21.296;2023-09-30T14:24:16;5.18;;;3.90;;
55007;SDS011;40902;45.116;21.296;2023-09-30T14:26:42;4.78;;;3.70;;
55007;SDS011;40902;45.116;21.296;2023-09-30T14:29:09;4.50;;;3.58;;
55007;SDS011;40902;45.116;21.296;2023-09-30T14:31:37;4.45;;;3.80;;
55007;SDS011;40902;45.116;21.296;2023-09-30T14:34:03;4.85;;;3.92;;
55007;SDS011;40902;45.116;21.296;2023-09-30T14:36:30;4.25;;;3.28;;
55007;SDS011;40902;45.116;21.296;2023-09-30T14:38:58;4.70;;;3.60;;
55007;SDS011;40902;45.116;21.296;2023-09-30T14:41:24;5.13;;;3.67;;
55007;SDS011;40902;45.116;21.296;2023-09-30T14:43:50;4.90;;;3.85;;
55007;SDS011;40902;45.116;21.296;2023-09-30T14:46:15;4.65;;;3.30;;
55007;SDS011;40902;45.116;21.296;2023-09-30T14:48:41;6.15;;;3.92;;
55007;SDS011;40902;45.116;21.296;2023-09-30T14:51:08;4.90;;;4.00;;
55007;SDS011;40902;45.116;21.296;2023-09-30T14:53:34;4.35;;;3.58;;
55007;SDS011;40902;45.116;21.296;2023-09-30T14:56:00;5.28;;;4.00;;
55007;SDS011;40902;45.116;21.296;2023-09-30T14:58:26;4.90;;;3.58;;
55007;SDS011;40902;45.116;21.296;2023-09-30T15:00:51;4.32;;;3.55;;